sensor_id;sensor_type;location;lat;lon;timestamp;P1;durP1;ratioP1;P2;durP2;ratioP2
33696;SDS011;20031;43.416;23.232;2023-07-22T00:01:48;6.60;;;1.30;;
33696;SDS011;20031;43.416;23.232;2023-07-22T00:04:14;17.85;;;1.60;;
33696;SDS011;20031;43.416;23.232;2023-07-22T00:06:39;16.75;;;1.50;;
33696;SDS011;20031;43.416;23.232;2023-07-22T00:09:05;13.65;;;1.60;;
33696;SDS011;20031;43.416;23.232;2023-07-22T00:11:30;18.98;;;1.50;;
33696;SDS011;20031;43.416;23.232;2023-07-22T00:13:56;19.50;;;1.50;;
33696;SDS011;20031;43.416;23.232;2023-07-22T00:16:21;11.43;;;1.40;;
33696;SDS011;20031;43.416;23.232;2023-07-22T00:18:47;8.30;;;1.38;;
33696;SDS011;20031;43.416;23.232;2023-07-22T00:21:13;14.65;;;1.50;;
33696;SDS011;20031;43.416;23.232;2023-07-22T00:23:38;18.38;;;1.45;;
33696;SDS011;20031;43.416;23.232;2023-07-22T00:26:04;11.20;;;1.60;;
33696;SDS011;20031;43.416;23.232;2023-07-22T00:28:29;19.48;;;2.40;;
33696;SDS011;20031;43.416;23.232;2023-07-22T00:30:55;20.90;;;2.35;;
33696;SDS011;20031;43.416;23.232;2023-07-22T00:33:22;12.13;;;1.30;;
33696;SDS011;20031;43.416;23.232;2023-07-22T00:35:48;8.82;;;1.40;;
33696;SDS011;20031;43.416;23.232;2023-07-22T00:38:17;15.02;;;1.77;;
33696;SDS011;20031;43.416;23.232;2023-07-22T00:40:43;14.48;;;1.60;;
33696;SDS011;20031;43.416;23.232;2023-07-22T00:43:09;7.97;;;1.48;;
33696;SDS011;20031;43.416;23.232;2023-07-22T00:45:35;18.83;;;1.70;;
33696;SDS011;20031;43.416;23.232;2023-07-22T00:48:01;11.13;;;1.45;;
33696;SDS011;20031;43.416;23.232;2023-07-22T00:50:27;13.00;;;2.08;;
33696;SDS011;20031;43.416;23.232;2023-07-22T00:52:53;14.88;;;1.60;;
33696;SDS011;20031;43.416;23.232;2023-07-22T00:55:19;9.30;;;1.25;;
33696;SDS011;20031;43.416;23.232;2023-07-22T00:57:44;13.75;;;1.67;;
33696;SDS011;20031;43.416;23.232;2023-07-22T01:00:10;16.67;;;1.70;;
33696;SDS011;20031;43.416;23.232;2023-07-22T01:02:37;13.88;;;1.55;;
33696;SDS011;20031;43.416;23.232;2023-07-22T01:05:04;15.15;;;1.77;;
33696;SDS011;20031;43.416;23.232;2023-07-22T01:07:30;14.48;;;2.03;;
33696;SDS011;20031;43.416;23.232;2023-07-22T01:09:56;14.70;;;1.48;;
33696;SDS011;20031;43.416;23.232;2023-07-22T01:12:23;14.13;;;1.60;;
33696;SDS011;20031;43.416;23.232;2023-07-22T01:14:49;13.23;;;2.20;;
33696;SDS011;20031;43.416;23.232;2023-07-22T01:17:15;13.40;;;1.92;;
33696;SDS011;20031;43.416;23.232;2023-07-22T01:19:40;14.48;;;1.85;;
33696;SDS011;20031;43.416;23.232;2023-07-22T01:22:06;15.93;;;1.80;;
33696;SDS011;20031;43.416;23.232;2023-07-22T01:24:32;9.95;;;1.70;;
33696;SDS011;20031;43.416;23.232;2023-07-22T01:26:58;12.82;;;1.80;;
33696;SDS011;20031;43.416;23.232;2023-07-22T01:29:25;17.88;;;1.98;;
33696;SDS011;20031;43.416;23.232;2023-07-22T01:31:51;16.85;;;2.20;;
33696;SDS011;20031;43.416;23.232;2023-07-22T01:34:18;16.58;;;1.90;;
33696;SDS011;20031;43.416;23.232;2023-07-22T01:36:44;16.45;;;1.92;;
33696;SDS011;20031;43.416;23.232;2023-07-22T01:39:14;8.75;;;1.90;;
33696;SDS011;20031;43.416;23.232;2023-07-22T01:41:43;10.90;;;2.00;;
33696;SDS011;20031;43.416;23.232;2023-07-22T01:44:09;15.13;;;2.10;;
33696;SDS011;20031;43.416;23.232;2023-07-22T01:46:36;15.27;;;2.05;;
33696;SDS011;20031;43.416;23.232;2023-07-22T01:49:03;21.10;;;2.42;;
33696;SDS011;20031;43.416;23.232;2023-07-22T01:51:30;10.43;;;2.10;;
33696;SDS011;20031;43.416;23.232;2023-07-22T01:53:56;12.27;;;1.92;;
33696;SDS011;20031;43.416;23.232;2023-07-22T01:56:22;10.38;;;1.85;;
33696;SDS011;20031;43.416;23.232;2023-07-22T01:58:47;9.13;;;2.13;;
33696;SDS011;20031;43.416;23.232;2023-07-22T02:01:13;21.02;;;1.92;;
33696;SDS011;20031;43.416;23.232;2023-07-22T02:03:42;10.73;;;1.75;;
33696;SDS011;20031;43.416;23.232;2023-07-22T02:06:08;17.00;;;2.13;;
33696;SDS011;20031;43.416;23.232;2023-07-22T02:08:33;12.10;;;1.80;;
33696;SDS011;20031;43.416;23.232;2023-07-22T02:11:03;15.93;;;1.88;;
33696;SDS011;20031;43.416;23.232;2023-07-22T02:13:30;15.98;;;2.00;;
33696;SDS011;20031;43.416;23.232;2023-07-22T02:15:56;25.67;;;2.53;;
33696;SDS011;20031;43.416;23.232;2023-07-22T02:18:22;17.92;;;2.13;;
33696;SDS011;20031;43.416;23.232;2023-07-22T02:20:47;11.25;;;1.50;;
33696;SDS011;20031;43.416;23.232;2023-07-22T02:23:13;17.88;;;2.03;;
33696;SDS011;20031;43.416;23.232;2023-07-22T02:25:39;11.43;;;1.85;;
33696;SDS011;20031;43.416;23.232;2023-07-22T02:28:04;12.25;;;2.05;;
33696;SDS011;20031;43.416;23.232;2023-07-22T02:30:33;22.23;;;2.17;;
33696;SDS011;20031;43.416;23.232;2023-07-22T02:33:00;33.63;;;2.10;;
33696;SDS011;20031;43.416;23.232;2023-07-22T02:35:27;15.93;;;2.50;;
33696;SDS011;20031;43.416;23.232;2023-07-22T02:37:52;14.90;;;2.20;;
33696;SDS011;20031;43.416;23.232;2023-07-22T02:40:18;17.52;;;2.22;;
33696;SDS011;20031;43.416;23.232;2023-07-22T02:42:43;22.98;;;2.33;;
33696;SDS011;20031;43.416;23.232;2023-07-22T02:45:09;21.70;;;2.45;;
33696;SDS011;20031;43.416;23.232;2023-07-22T02:47:35;35.90;;;3.88;;
33696;SDS011;20031;43.416;23.232;2023-07-22T02:50:01;54.55;;;4.53;;
33696;SDS011;20031;43.416;23.232;2023-07-22T02:52:27;42.33;;;4.05;;
33696;SDS011;20031;43.416;23.232;2023-07-22T02:55:08;30.52;;;3.17;;
33696;SDS011;20031;43.416;23.232;2023-07-22T02:57:38;27.33;;;2.60;;
33696;SDS011;20031;43.416;23.232;2023-07-22T03:00:05;27.20;;;3.42;;
33696;SDS011;20031;43.416;23.232;2023-07-22T03:02:36;56.75;;;5.03;;
33696;SDS011;20031;43.416;23.232;2023-07-22T03:05:06;41.42;;;4.18;;
33696;SDS011;20031;43.416;23.232;2023-07-22T03:07:33;41.13;;;3.80;;
33696;SDS011;20031;43.416;23.232;2023-07-22T03:09:59;43.47;;;3.70;;
33696;SDS011;20031;43.416;23.232;2023-07-22T03:12:25;17.33;;;2.50;;
33696;SDS011;20031;43.416;23.232;2023-07-22T03:14:51;16.38;;;2.03;;
33696;SDS011;20031;43.416;23.232;2023-07-22T03:17:18;24.92;;;2.00;;
33696;SDS011;20031;43.416;23.232;2023-07-22T03:19:44;16.15;;;2.00;;
33696;SDS011;20031;43.416;23.232;2023-07-22T03:22:10;23.45;;;2.55;;
33696;SDS011;20031;43.416;23.232;2023-07-22T03:24:38;13.95;;;2.08;;
33696;SDS011;20031;43.416;23.232;2023-07-22T03:27:03;11.27;;;1.90;;
33696;SDS011;20031;43.416;23.232;2023-07-22T03:29:29;15.65;;;2.00;;
33696;SDS011;20031;43.416;23.232;2023-07-22T03:31:55;17.58;;;2.00;;
33696;SDS011;20031;43.416;23.232;2023-07-22T03:34:22;11.70;;;2.00;;
33696;SDS011;20031;43.416;23.232;2023-07-22T03:36:48;17.27;;;2.00;;
33696;SDS011;20031;43.416;23.232;2023-07-22T03:39:14;17.60;;;2.05;;
33696;SDS011;20031;43.416;23.232;2023-07-22T03:41:39;9.10;;;2.20;;
33696;SDS011;20031;43.416;23.232;2023-07-22T03:44:05;14.68;;;2.10;;
33696;SDS011;20031;43.416;23.232;2023-07-22T03:46:30;15.02;;;2.03;;
33696;SDS011;20031;43.416;23.232;2023-07-22T03:48:56;17.58;;;2.17;;
33696;SDS011;20031;43.416;23.232;2023-07-22T03:51:21;16.55;;;2.17;;
33696;SDS011;20031;43.416;23.232;2023-07-22T03:53:47;17.08;;;2.55;;
33696;SDS011;20031;43.416;23.232;2023-07-22T03:56:12;12.48;;;2.00;;
33696;SDS011;20031;43.416;23.232;2023-07-22T03:58:38;9.95;;;2.00;;
33696;SDS011;20031;43.416;23.232;2023-07-22T04:01:03;17.70;;;2.38;;
33696;SDS011;20031;43.416;23.232;2023-07-22T04:03:29;17.33;;;2.67;;
33696;SDS011;20031;43.416;23.232;2023-07-22T04:05:54;11.82;;;2.38;;
33696;SDS011;20031;43.416;23.232;2023-07-22T04:08:20;10.57;;;2.20;;
33696;SDS011;20031;43.416;23.232;2023-07-22T04:10:55;33.88;;;2.97;;
33696;SDS011;20031;43.416;23.232;2023-07-22T04:15:48;20.10;;;2.90;;
33696;SDS011;20031;43.416;23.232;2023-07-22T04:18:17;12.57;;;2.60;;
33696;SDS011;20031;43.416;23.232;2023-07-22T04:20:43;12.45;;;2.72;;
33696;SDS011;20031;43.416;23.232;2023-07-22T04:23:09;19.17;;;4.00;;
33696;SDS011;20031;43.416;23.232;2023-07-22T04:25:40;13.45;;;3.20;;
33696;SDS011;20031;43.416;23.232;2023-07-22T04:28:10;15.57;;;3.03;;
33696;SDS011;20031;43.416;23.232;2023-07-22T04:30:36;25.05;;;3.05;;
33696;SDS011;20031;43.416;23.232;2023-07-22T04:33:03;16.85;;;2.83;;
33696;SDS011;20031;43.416;23.232;2023-07-22T04:35:33;27.90;;;3.50;;
33696;SDS011;20031;43.416;23.232;2023-07-22T04:38:02;19.02;;;3.15;;
33696;SDS011;20031;43.416;23.232;2023-07-22T04:40:28;18.65;;;3.33;;
33696;SDS011;20031;43.416;23.232;2023-07-22T04:42:55;17.23;;;3.42;;
33696;SDS011;20031;43.416;23.232;2023-07-22T04:45:22;17.05;;;2.83;;
33696;SDS011;20031;43.416;23.232;2023-07-22T04:47:51;15.88;;;2.75;;
33696;SDS011;20031;43.416;23.232;2023-07-22T04:50:17;20.10;;;3.40;;
33696;SDS011;20031;43.416;23.232;2023-07-22T04:52:44;13.98;;;3.10;;
33696;SDS011;20031;43.416;23.232;2023-07-22T04:55:13;12.20;;;2.90;;
33696;SDS011;20031;43.416;23.232;2023-07-22T04:57:39;19.15;;;3.08;;
33696;SDS011;20031;43.416;23.232;2023-07-22T05:00:06;15.25;;;2.97;;
33696;SDS011;20031;43.416;23.232;2023-07-22T05:02:38;11.70;;;2.95;;
33696;SDS011;20031;43.416;23.232;2023-07-22T05:05:04;14.02;;;2.70;;
33696;SDS011;20031;43.416;23.232;2023-07-22T05:07:30;12.60;;;2.72;;
33696;SDS011;20031;43.416;23.232;2023-07-22T05:09:55;17.90;;;3.10;;
33696;SDS011;20031;43.416;23.232;2023-07-22T05:12:20;11.23;;;2.80;;
33696;SDS011;20031;43.416;23.232;2023-07-22T05:14:46;11.77;;;2.80;;
33696;SDS011;20031;43.416;23.232;2023-07-22T05:17:11;12.10;;;3.03;;
33696;SDS011;20031;43.416;23.232;2023-07-22T05:19:37;9.32;;;2.67;;
33696;SDS011;20031;43.416;23.232;2023-07-22T05:22:02;9.00;;;2.50;;
33696;SDS011;20031;43.416;23.232;2023-07-22T05:24:28;16.90;;;2.60;;
33696;SDS011;20031;43.416;23.232;2023-07-22T05:26:54;12.65;;;2.45;;
33696;SDS011;20031;43.416;23.232;2023-07-22T05:29:20;15.85;;;2.70;;
33696;SDS011;20031;43.416;23.232;2023-07-22T05:31:45;13.63;;;2.35;;
33696;SDS011;20031;43.416;23.232;2023-07-22T05:34:11;20.30;;;3.17;;
33696;SDS011;20031;43.416;23.232;2023-07-22T05:36:37;8.52;;;2.72;;
33696;SDS011;20031;43.416;23.232;2023-07-22T05:39:03;11.05;;;2.75;;
33696;SDS011;20031;43.416;23.232;2023-07-22T05:41:28;13.63;;;2.65;;
33696;SDS011;20031;43.416;23.232;2023-07-22T05:43:54;10.10;;;2.47;;
33696;SDS011;20031;43.416;23.232;2023-07-22T05:46:19;17.23;;;2.85;;
33696;SDS011;20031;43.416;23.232;2023-07-22T05:48:44;13.93;;;2.45;;
33696;SDS011;20031;43.416;23.232;2023-07-22T05:51:10;9.05;;;2.80;;
33696;SDS011;20031;43.416;23.232;2023-07-22T05:53:35;20.23;;;2.80;;
33696;SDS011;20031;43.416;23.232;2023-07-22T05:56:01;12.55;;;2.78;;
33696;SDS011;20031;43.416;23.232;2023-07-22T05:58:26;11.73;;;2.60;;
33696;SDS011;20031;43.416;23.232;2023-07-22T06:00:53;7.60;;;2.42;;
33696;SDS011;20031;43.416;23.232;2023-07-22T06:03:19;12.55;;;2.90;;
33696;SDS011;20031;43.416;23.232;2023-07-22T06:05:46;15.98;;;2.50;;
33696;SDS011;20031;43.416;23.232;2023-07-22T06:08:11;10.77;;;2.35;;
33696;SDS011;20031;43.416;23.232;2023-07-22T06:10:37;11.77;;;2.53;;
33696;SDS011;20031;43.416;23.232;2023-07-22T06:13:03;13.65;;;3.50;;
33696;SDS011;20031;43.416;23.232;2023-07-22T06:15:29;21.63;;;3.10;;
33696;SDS011;20031;43.416;23.232;2023-07-22T06:17:54;21.13;;;3.03;;
33696;SDS011;20031;43.416;23.232;2023-07-22T06:20:20;15.98;;;3.00;;
33696;SDS011;20031;43.416;23.232;2023-07-22T06:22:45;14.75;;;2.90;;
33696;SDS011;20031;43.416;23.232;2023-07-22T06:25:11;21.60;;;3.15;;
33696;SDS011;20031;43.416;23.232;2023-07-22T06:27:37;20.55;;;2.45;;
33696;SDS011;20031;43.416;23.232;2023-07-22T06:30:02;15.43;;;2.92;;
33696;SDS011;20031;43.416;23.232;2023-07-22T06:32:28;10.90;;;3.03;;
33696;SDS011;20031;43.416;23.232;2023-07-22T06:34:55;27.15;;;3.58;;
33696;SDS011;20031;43.416;23.232;2023-07-22T06:37:23;11.70;;;2.95;;
33696;SDS011;20031;43.416;23.232;2023-07-22T06:39:49;11.07;;;2.92;;
33696;SDS011;20031;43.416;23.232;2023-07-22T06:42:15;17.70;;;3.22;;
33696;SDS011;20031;43.416;23.232;2023-07-22T06:44:40;15.32;;;2.83;;
33696;SDS011;20031;43.416;23.232;2023-07-22T06:47:06;19.02;;;2.85;;
33696;SDS011;20031;43.416;23.232;2023-07-22T06:49:32;13.70;;;2.55;;
33696;SDS011;20031;43.416;23.232;2023-07-22T06:51:57;14.10;;;2.65;;
33696;SDS011;20031;43.416;23.232;2023-07-22T06:54:23;12.63;;;2.55;;
33696;SDS011;20031;43.416;23.232;2023-07-22T06:56:48;20.92;;;2.80;;
33696;SDS011;20031;43.416;23.232;2023-07-22T06:59:14;15.25;;;3.40;;
33696;SDS011;20031;43.416;23.232;2023-07-22T07:01:39;12.80;;;2.60;;
33696;SDS011;20031;43.416;23.232;2023-07-22T07:04:06;13.90;;;2.67;;
33696;SDS011;20031;43.416;23.232;2023-07-22T07:06:31;13.95;;;2.70;;
33696;SDS011;20031;43.416;23.232;2023-07-22T07:08:59;15.07;;;2.75;;
33696;SDS011;20031;43.416;23.232;2023-07-22T07:11:25;11.68;;;2.58;;
33696;SDS011;20031;43.416;23.232;2023-07-22T07:13:51;13.88;;;2.70;;
33696;SDS011;20031;43.416;23.232;2023-07-22T07:18:54;13.10;;;2.65;;
33696;SDS011;20031;43.416;23.232;2023-07-22T07:21:20;13.80;;;2.65;;
33696;SDS011;20031;43.416;23.232;2023-07-22T07:23:47;12.68;;;2.42;;
33696;SDS011;20031;43.416;23.232;2023-07-22T07:26:13;11.50;;;2.50;;
33696;SDS011;20031;43.416;23.232;2023-07-22T07:28:39;10.85;;;2.60;;
33696;SDS011;20031;43.416;23.232;2023-07-22T07:31:04;10.35;;;2.50;;
33696;SDS011;20031;43.416;23.232;2023-07-22T07:33:30;15.65;;;2.70;;
33696;SDS011;20031;43.416;23.232;2023-07-22T07:35:56;12.80;;;2.47;;
33696;SDS011;20031;43.416;23.232;2023-07-22T07:38:21;9.60;;;2.30;;
33696;SDS011;20031;43.416;23.232;2023-07-22T07:40:51;14.85;;;2.25;;
33696;SDS011;20031;43.416;23.232;2023-07-22T07:45:48;10.30;;;2.57;;
33696;SDS011;20031;43.416;23.232;2023-07-22T07:48:13;16.05;;;3.00;;
33696;SDS011;20031;43.416;23.232;2023-07-22T07:50:39;12.50;;;2.80;;
33696;SDS011;20031;43.416;23.232;2023-07-22T07:53:05;13.45;;;2.75;;
33696;SDS011;20031;43.416;23.232;2023-07-22T07:55:30;10.43;;;2.50;;
33696;SDS011;20031;43.416;23.232;2023-07-22T07:57:55;15.48;;;2.75;;
33696;SDS011;20031;43.416;23.232;2023-07-22T08:00:21;8.93;;;2.60;;
33696;SDS011;20031;43.416;23.232;2023-07-22T08:02:46;10.77;;;2.65;;
33696;SDS011;20031;43.416;23.232;2023-07-22T08:05:13;11.80;;;2.38;;
33696;SDS011;20031;43.416;23.232;2023-07-22T08:07:38;13.85;;;2.40;;
33696;SDS011;20031;43.416;23.232;2023-07-22T08:10:04;10.63;;;2.58;;
33696;SDS011;20031;43.416;23.232;2023-07-22T08:12:32;10.13;;;2.50;;
33696;SDS011;20031;43.416;23.232;2023-07-22T08:14:58;7.95;;;2.28;;
33696;SDS011;20031;43.416;23.232;2023-07-22T08:17:25;12.60;;;2.65;;
33696;SDS011;20031;43.416;23.232;2023-07-22T08:19:51;14.57;;;2.60;;
33696;SDS011;20031;43.416;23.232;2023-07-22T08:22:17;16.00;;;2.28;;
33696;SDS011;20031;43.416;23.232;2023-07-22T08:24:43;9.88;;;2.33;;
33696;SDS011;20031;43.416;23.232;2023-07-22T08:27:08;11.27;;;2.35;;
33696;SDS011;20031;43.416;23.232;2023-07-22T08:29:34;13.95;;;2.58;;
33696;SDS011;20031;43.416;23.232;2023-07-22T08:31:59;8.70;;;2.58;;
33696;SDS011;20031;43.416;23.232;2023-07-22T08:34:25;14.45;;;2.80;;
33696;SDS011;20031;43.416;23.232;2023-07-22T08:36:51;10.02;;;2.90;;
33696;SDS011;20031;43.416;23.232;2023-07-22T08:39:17;7.82;;;2.63;;
33696;SDS011;20031;43.416;23.232;2023-07-22T08:41:43;10.70;;;2.30;;
33696;SDS011;20031;43.416;23.232;2023-07-22T08:44:14;7.88;;;2.50;;
33696;SDS011;20031;43.416;23.232;2023-07-22T08:46:43;13.40;;;2.30;;
33696;SDS011;20031;43.416;23.232;2023-07-22T08:49:10;9.07;;;2.30;;
33696;SDS011;20031;43.416;23.232;2023-07-22T08:51:35;14.00;;;2.55;;
33696;SDS011;20031;43.416;23.232;2023-07-22T08:54:02;10.15;;;2.17;;
33696;SDS011;20031;43.416;23.232;2023-07-22T08:56:28;11.00;;;2.72;;
33696;SDS011;20031;43.416;23.232;2023-07-22T08:58:54;12.90;;;2.42;;
33696;SDS011;20031;43.416;23.232;2023-07-22T09:01:21;17.38;;;2.38;;
33696;SDS011;20031;43.416;23.232;2023-07-22T09:03:48;19.63;;;3.28;;
33696;SDS011;20031;43.416;23.232;2023-07-22T09:06:18;11.93;;;2.40;;
33696;SDS011;20031;43.416;23.232;2023-07-22T09:08:45;11.00;;;2.72;;
33696;SDS011;20031;43.416;23.232;2023-07-22T09:11:11;14.15;;;2.60;;
33696;SDS011;20031;43.416;23.232;2023-07-22T09:13:36;19.65;;;2.63;;
33696;SDS011;20031;43.416;23.232;2023-07-22T09:16:04;12.63;;;2.40;;
33696;SDS011;20031;43.416;23.232;2023-07-22T09:18:32;11.10;;;2.50;;
33696;SDS011;20031;43.416;23.232;2023-07-22T09:20:58;11.95;;;2.38;;
33696;SDS011;20031;43.416;23.232;2023-07-22T09:23:37;7.95;;;2.45;;
33696;SDS011;20031;43.416;23.232;2023-07-22T09:26:13;17.00;;;2.80;;
33696;SDS011;20031;43.416;23.232;2023-07-22T09:28:50;13.65;;;2.60;;
33696;SDS011;20031;43.416;23.232;2023-07-22T09:31:20;8.38;;;2.10;;
33696;SDS011;20031;43.416;23.232;2023-07-22T09:33:50;10.15;;;2.28;;
33696;SDS011;20031;43.416;23.232;2023-07-22T09:36:16;13.20;;;2.55;;
33696;SDS011;20031;43.416;23.232;2023-07-22T09:38:42;10.43;;;2.40;;
33696;SDS011;20031;43.416;23.232;2023-07-22T09:41:07;11.32;;;3.15;;
33696;SDS011;20031;43.416;23.232;2023-07-22T09:43:37;10.65;;;2.55;;
33696;SDS011;20031;43.416;23.232;2023-07-22T09:46:09;8.20;;;2.30;;
33696;SDS011;20031;43.416;23.232;2023-07-22T09:48:39;14.98;;;2.83;;
33696;SDS011;20031;43.416;23.232;2023-07-22T09:51:06;13.15;;;2.47;;
33696;SDS011;20031;43.416;23.232;2023-07-22T09:53:37;9.35;;;2.45;;
33696;SDS011;20031;43.416;23.232;2023-07-22T09:56:03;14.73;;;2.75;;
33696;SDS011;20031;43.416;23.232;2023-07-22T09:58:30;12.18;;;2.53;;
33696;SDS011;20031;43.416;23.232;2023-07-22T10:00:57;16.92;;;2.80;;
33696;SDS011;20031;43.416;23.232;2023-07-22T10:03:27;11.80;;;2.58;;
33696;SDS011;20031;43.416;23.232;2023-07-22T10:05:55;13.63;;;2.40;;
33696;SDS011;20031;43.416;23.232;2023-07-22T10:08:25;14.30;;;2.63;;
33696;SDS011;20031;43.416;23.232;2023-07-22T10:10:54;12.70;;;2.80;;
33696;SDS011;20031;43.416;23.232;2023-07-22T10:13:24;13.85;;;2.85;;
33696;SDS011;20031;43.416;23.232;2023-07-22T10:15:50;13.20;;;2.50;;
33696;SDS011;20031;43.416;23.232;2023-07-22T10:18:15;8.18;;;2.13;;
33696;SDS011;20031;43.416;23.232;2023-07-22T10:20:42;13.80;;;2.70;;
33696;SDS011;20031;43.416;23.232;2023-07-22T10:23:09;12.40;;;2.83;;
33696;SDS011;20031;43.416;23.232;2023-07-22T10:25:36;11.13;;;2.67;;
33696;SDS011;20031;43.416;23.232;2023-07-22T10:28:03;11.93;;;2.67;;
33696;SDS011;20031;43.416;23.232;2023-07-22T10:30:30;11.50;;;2.83;;
33696;SDS011;20031;43.416;23.232;2023-07-22T10:32:56;11.02;;;3.00;;
33696;SDS011;20031;43.416;23.232;2023-07-22T10:35:34;15.55;;;2.90;;
33696;SDS011;20031;43.416;23.232;2023-07-22T10:40:36;11.80;;;2.50;;
33696;SDS011;20031;43.416;23.232;2023-07-22T10:43:17;11.15;;;2.50;;
33696;SDS011;20031;43.416;23.232;2023-07-22T10:45:58;9.60;;;3.15;;
33696;SDS011;20031;43.416;23.232;2023-07-22T10:48:34;17.98;;;3.10;;
33696;SDS011;20031;43.416;23.232;2023-07-22T10:51:10;12.80;;;3.00;;
33696;SDS011;20031;43.416;23.232;2023-07-22T10:53:47;13.15;;;2.90;;
33696;SDS011;20031;43.416;23.232;2023-07-22T10:56:18;17.90;;;3.00;;
33696;SDS011;20031;43.416;23.232;2023-07-22T11:06:55;12.85;;;2.67;;
33696;SDS011;20031;43.416;23.232;2023-07-22T11:11:53;10.27;;;2.45;;
33696;SDS011;20031;43.416;23.232;2023-07-22T11:14:23;10.60;;;2.47;;
33696;SDS011;20031;43.416;23.232;2023-07-22T11:16:53;13.23;;;2.72;;
33696;SDS011;20031;43.416;23.232;2023-07-22T11:19:21;13.55;;;2.60;;
33696;SDS011;20031;43.416;23.232;2023-07-22T11:21:52;9.88;;;2.55;;
33696;SDS011;20031;43.416;23.232;2023-07-22T11:24:19;14.75;;;2.60;;
33696;SDS011;20031;43.416;23.232;2023-07-22T11:26:46;12.48;;;2.80;;
33696;SDS011;20031;43.416;23.232;2023-07-22T11:29:12;10.80;;;2.80;;
33696;SDS011;20031;43.416;23.232;2023-07-22T11:31:42;15.15;;;3.30;;
33696;SDS011;20031;43.416;23.232;2023-07-22T11:34:10;15.05;;;2.97;;
33696;SDS011;20031;43.416;23.232;2023-07-22T11:36:36;19.48;;;2.88;;
33696;SDS011;20031;43.416;23.232;2023-07-22T11:39:11;10.00;;;2.90;;
33696;SDS011;20031;43.416;23.232;2023-07-22T11:41:38;13.52;;;3.00;;
33696;SDS011;20031;43.416;23.232;2023-07-22T11:44:07;13.57;;;3.22;;
33696;SDS011;20031;43.416;23.232;2023-07-22T11:46:54;17.17;;;3.25;;
33696;SDS011;20031;43.416;23.232;2023-07-22T11:49:22;12.85;;;3.00;;
33696;SDS011;20031;43.416;23.232;2023-07-22T11:51:59;16.50;;;2.70;;
33696;SDS011;20031;43.416;23.232;2023-07-22T11:54:37;13.20;;;3.00;;
33696;SDS011;20031;43.416;23.232;2023-07-22T11:57:14;15.10;;;3.00;;
33696;SDS011;20031;43.416;23.232;2023-07-22T11:59:40;15.15;;;3.08;;
33696;SDS011;20031;43.416;23.232;2023-07-22T12:02:27;14.60;;;2.70;;
33696;SDS011;20031;43.416;23.232;2023-07-22T12:04:59;21.50;;;3.00;;
33696;SDS011;20031;43.416;23.232;2023-07-22T12:07:31;11.00;;;2.65;;
33696;SDS011;20031;43.416;23.232;2023-07-22T12:10:01;8.98;;;2.50;;
33696;SDS011;20031;43.416;23.232;2023-07-22T12:15:08;15.23;;;2.95;;
33696;SDS011;20031;43.416;23.232;2023-07-22T12:17:48;11.13;;;2.47;;
33696;SDS011;20031;43.416;23.232;2023-07-22T12:20:28;11.52;;;2.70;;
33696;SDS011;20031;43.416;23.232;2023-07-22T12:22:55;11.30;;;2.25;;
33696;SDS011;20031;43.416;23.232;2023-07-22T12:25:22;9.88;;;2.65;;
33696;SDS011;20031;43.416;23.232;2023-07-22T12:27:48;14.32;;;2.78;;
33696;SDS011;20031;43.416;23.232;2023-07-22T12:30:15;14.80;;;2.83;;
33696;SDS011;20031;43.416;23.232;2023-07-22T12:32:41;12.50;;;2.92;;
33696;SDS011;20031;43.416;23.232;2023-07-22T12:35:06;11.00;;;2.65;;
33696;SDS011;20031;43.416;23.232;2023-07-22T12:37:33;11.40;;;3.33;;
33696;SDS011;20031;43.416;23.232;2023-07-22T12:39:58;8.45;;;2.53;;
33696;SDS011;20031;43.416;23.232;2023-07-22T12:42:24;12.18;;;2.60;;
33696;SDS011;20031;43.416;23.232;2023-07-22T12:44:49;10.23;;;2.70;;
33696;SDS011;20031;43.416;23.232;2023-07-22T12:47:16;7.93;;;2.20;;
33696;SDS011;20031;43.416;23.232;2023-07-22T12:49:42;9.45;;;2.30;;
33696;SDS011;20031;43.416;23.232;2023-07-22T12:52:07;12.40;;;2.88;;
33696;SDS011;20031;43.416;23.232;2023-07-22T12:54:37;12.02;;;2.80;;
33696;SDS011;20031;43.416;23.232;2023-07-22T12:57:03;13.10;;;2.65;;
33696;SDS011;20031;43.416;23.232;2023-07-22T12:59:29;16.42;;;3.17;;
33696;SDS011;20031;43.416;23.232;2023-07-22T13:01:54;8.32;;;2.97;;
33696;SDS011;20031;43.416;23.232;2023-07-22T13:04:20;11.90;;;2.55;;
33696;SDS011;20031;43.416;23.232;2023-07-22T13:06:45;12.45;;;3.05;;
33696;SDS011;20031;43.416;23.232;2023-07-22T13:09:11;10.57;;;3.05;;
33696;SDS011;20031;43.416;23.232;2023-07-22T13:11:36;9.60;;;2.55;;
33696;SDS011;20031;43.416;23.232;2023-07-22T13:14:02;7.82;;;2.53;;
33696;SDS011;20031;43.416;23.232;2023-07-22T13:16:28;10.32;;;2.70;;
33696;SDS011;20031;43.416;23.232;2023-07-22T13:18:53;13.27;;;2.70;;
33696;SDS011;20031;43.416;23.232;2023-07-22T13:21:19;10.82;;;2.40;;
33696;SDS011;20031;43.416;23.232;2023-07-22T13:23:44;11.98;;;2.63;;
33696;SDS011;20031;43.416;23.232;2023-07-22T13:26:09;9.40;;;2.67;;
33696;SDS011;20031;43.416;23.232;2023-07-22T13:28:35;16.13;;;3.05;;
33696;SDS011;20031;43.416;23.232;2023-07-22T13:31:00;14.18;;;3.08;;
33696;SDS011;20031;43.416;23.232;2023-07-22T13:33:26;9.25;;;3.05;;
33696;SDS011;20031;43.416;23.232;2023-07-22T13:35:51;11.25;;;3.10;;
33696;SDS011;20031;43.416;23.232;2023-07-22T13:38:17;11.45;;;2.47;;
33696;SDS011;20031;43.416;23.232;2023-07-22T13:40:42;16.38;;;2.50;;
33696;SDS011;20031;43.416;23.232;2023-07-22T13:43:07;13.27;;;2.88;;
33696;SDS011;20031;43.416;23.232;2023-07-22T13:45:34;9.65;;;2.80;;
33696;SDS011;20031;43.416;23.232;2023-07-22T13:48:00;11.52;;;2.55;;
33696;SDS011;20031;43.416;23.232;2023-07-22T13:50:25;10.18;;;2.78;;
33696;SDS011;20031;43.416;23.232;2023-07-22T13:52:51;7.45;;;2.50;;
33696;SDS011;20031;43.416;23.232;2023-07-22T13:55:16;12.57;;;2.63;;
33696;SDS011;20031;43.416;23.232;2023-07-22T13:57:42;18.15;;;3.30;;
33696;SDS011;20031;43.416;23.232;2023-07-22T14:00:07;9.55;;;2.80;;
33696;SDS011;20031;43.416;23.232;2023-07-22T14:02:33;11.18;;;2.80;;
33696;SDS011;20031;43.416;23.232;2023-07-22T14:04:59;9.57;;;2.88;;
33696;SDS011;20031;43.416;23.232;2023-07-22T14:07:25;9.25;;;2.75;;
33696;SDS011;20031;43.416;23.232;2023-07-22T14:09:50;10.63;;;2.67;;
33696;SDS011;20031;43.416;23.232;2023-07-22T14:12:16;11.50;;;2.58;;
33696;SDS011;20031;43.416;23.232;2023-07-22T14:14:41;12.00;;;2.60;;
33696;SDS011;20031;43.416;23.232;2023-07-22T14:17:07;9.52;;;2.55;;
33696;SDS011;20031;43.416;23.232;2023-07-22T14:19:32;9.38;;;2.72;;
33696;SDS011;20031;43.416;23.232;2023-07-22T14:21:58;13.30;;;3.25;;
33696;SDS011;20031;43.416;23.232;2023-07-22T14:24:23;10.30;;;2.55;;
33696;SDS011;20031;43.416;23.232;2023-07-22T14:26:49;16.00;;;2.80;;
33696;SDS011;20031;43.416;23.232;2023-07-22T14:29:14;6.93;;;2.65;;
33696;SDS011;20031;43.416;23.232;2023-07-22T14:31:41;13.95;;;3.00;;
33696;SDS011;20031;43.416;23.232;2023-07-22T14:34:08;11.65;;;2.90;;
33696;SDS011;20031;43.416;23.232;2023-07-22T14:36:33;9.45;;;3.35;;
33696;SDS011;20031;43.416;23.232;2023-07-22T14:38:59;17.27;;;2.90;;
33696;SDS011;20031;43.416;23.232;2023-07-22T14:41:24;11.00;;;3.13;;
33696;SDS011;20031;43.416;23.232;2023-07-22T14:43:50;10.13;;;2.72;;
33696;SDS011;20031;43.416;23.232;2023-07-22T14:46:15;9.77;;;2.80;;